• Join FlightAware (Why Join?)
  • Login
  • US Flag 
09:17PM EDT


 

Airport Tracker/Info


-or-


 

Live Flight TrackerFlight Track Log ✈ SWA1035 ✈ 22-Apr-2013 ✈ KTPA - KMCI

Flight Track Log - Related Links

Times and Time Zones

All times are in EDT time to prevent confusion due to time zone crossing. See the SWA1035 flight status page for this flight to view local times or setup timezone preferences in your user account.

Time Position Orientation Groundspeed Altitude Reporting Facility
EDT Latitude Longitude Course Direction KTS MPH feet Rate Location/Type
11:16AM 28.2436 -82.6217 344° North 291 335 10,900  Level Jacksonville Center
11:17AM 28.3314 -82.6708 334° Northwest 330 380 13,000 2,580 Climbing Jacksonville Center
11:18AM 28.4211 -82.7275 331° Northwest 358 412 16,100 2,700 Climbing Jacksonville Center
11:19AM 28.4983 -82.7697 334° Northwest 382 440 18,500 2,880 Climbing Jacksonville Center
11:20AM 28.6133 -82.8406 332° Northwest 394 453 21,900 2,700 Climbing Jacksonville Center
11:21AM 28.7072 -82.9044 329° Northwest 400 460 23,900 1,980 Climbing Jacksonville Center
11:22AM 28.8094 -82.9756 329° Northwest 414 476 25,900 1,920 Climbing Jacksonville Center
11:23AM 28.9117 -83.0467 329° Northwest 425 489 27,800 1,740 Climbing Jacksonville Center
11:24AM 29.0158 -83.1206 328° Northwest 432 497 29,400 1,800 Climbing Jacksonville Center
11:25AM 29.1242 -83.1944 329° Northwest 437 503 31,500 2,100 Climbing Jacksonville Center
11:26AM 29.2283 -83.2686 328° Northwest 442 509 33,600 1,260 Climbing Jacksonville Center
11:27AM 29.3306 -83.3381 329° Northwest 436 502 34,000 600 Climbing Jacksonville Center
11:28AM 29.4344 -83.4125 328° Northwest 436 502 34,900 1,140 Climbing Jacksonville Center
11:29AM 29.5364 -83.4844 328° Northwest 436 502 36,300 1,440 Climbing Jacksonville Center
11:30AM 29.6364 -83.5544 329° Northwest 430 495 37,800 840 Climbing Jacksonville Center
11:31AM 29.7383 -83.6244 329° Northwest 430 495 38,000 60 Climbing Jacksonville Center
11:32AM 29.8339 -83.7019 325° Northwest 430 495 38,000  Level Jacksonville Center
11:33AM 29.9167 -83.7961 315° West 420 483 38,000  Level Jacksonville Center
11:34AM 30.0017 -83.8903 316° Northwest 420 483 38,000  Level Jacksonville Center
11:35AM 30.0864 -83.9847 316° Northwest 420 483 38,000  Level Jacksonville Center
11:36AM 30.1669 -84.0794 315° West 420 483 38,000  Level Jacksonville Center
11:37AM 30.2517 -84.1719 317° Northwest 415 478 38,000  Level Jacksonville Center
11:38AM 30.3322 -84.2644 315° West 409 471 38,000  Level Jacksonville Center
11:39AM 30.4125 -84.3569 315° West 409 471 38,000  Level Jacksonville Center
11:40AM 30.4950 -84.4500 316° Northwest 409 471 38,000  Level Jacksonville Center
11:41AM 30.5753 -84.5431 315° West 409 471 38,000  Level Jacksonville Center
11:42AM 30.6556 -84.6336 316° Northwest 409 471 38,000  Level Jacksonville Center
11:43AM 30.7397 -84.7319 315° West 409 471 38,000  Level Jacksonville Center
11:44AM 30.8197 -84.8253 315° West 404 465 38,000  Level Jacksonville Center
11:45AM 30.8997 -84.9167 316° Northwest 409 471 38,000  Level Jacksonville Center
11:47AM 31.0244 -85.0661 314° West 413 475 38,000  Level Atlanta Center
11:48AM 31.1050 -85.1592 315° West 408 470 38,000  Level Atlanta Center
11:49AM 31.1856 -85.2525 315° West 408 470 38,000  Level Atlanta Center
11:50AM 31.2700 -85.3508 315° West 408 470 38,000  Level Atlanta Center
11:52AM 31.4203 -85.5331 314° West 409 471 38,000  Level Atlanta Center
11:53AM 31.5069 -85.6269 317° Northwest 409 471 38,000  Level Atlanta Center
11:54AM 31.5869 -85.7258 314° West 409 471 38,000  Level Atlanta Center
11:55AM 31.6692 -85.8225 315° West 409 471 38,000  Level Atlanta Center
11:56AM 31.7614 -85.9342 314° West 409 471 38,000  Level Atlanta Center
11:57AM 31.8433 -86.0289 316° Northwest 409 471 38,000  Level Atlanta Center
11:58AM 31.9150 -86.1186 313° West 403 464 38,000  Level Atlanta Center
11:59AM 32.0028 -86.2233 315° West 408 470 38,000  Level Atlanta Center
12:00PM 32.0844 -86.3236 314° West 408 470 38,000  Level Atlanta Center
12:01PM 32.1642 -86.4114 317° Northwest 413 475 38,000  Level Atlanta Center
12:02PM 32.2436 -86.5092 314° West 413 475 38,000  Level Atlanta Center
12:03PM 32.3253 -86.6100 314° West 418 481 38,000  Level Atlanta Center
12:04PM 32.4067 -86.7081 315° West 411 473 38,000  Level Atlanta Center
12:05PM 32.4919 -86.8117 314° West 405 466 38,000  Level Atlanta Center
12:06PM 32.5731 -86.9103 314° West 405 466 38,000  Level Atlanta Center
12:07PM 32.6500 -87.0117 312° West 410 472 38,000  Level Atlanta Center
12:08PM 32.7269 -87.1153 311° West 410 472 38,000  Level Atlanta Center
12:10PM 32.8933 -87.3042 316° Northwest 414 476 38,000  Level Memphis Center
12:11PM 32.9708 -87.4081 312° West 414 476 38,000  Level Memphis Center
12:12PM 33.0525 -87.5069 315° West 414 476 38,000  Level Memphis Center
12:13PM 33.1342 -87.6111 313° West 414 476 38,000  Level Memphis Center
12:14PM 33.2158 -87.7128 314° West 419 482 38,000  Level Memphis Center
12:15PM 33.2950 -87.8172 312° West 419 482 38,000  Level Memphis Center
12:16PM 33.3764 -87.9194 314° West 419 482 38,000  Level Memphis Center
12:17PM 33.4578 -88.0192 314° West 414 476 38,000  Level Memphis Center
12:18PM 33.5369 -88.1217 313° West 414 476 38,000  Level Memphis Center
12:19PM 33.6158 -88.2219 313° West 414 476 38,000  Level Memphis Center
12:20PM 33.6969 -88.3222 314° West 414 476 38,000  Level Memphis Center
12:21PM 33.7756 -88.4256 312° West 414 476 38,000  Level Memphis Center
12:22PM 33.8522 -88.5214 314° West 414 476 38,000  Level Memphis Center
12:23PM 33.9331 -88.6247 313° West 414 476 38,000  Level Memphis Center
12:24PM 34.0117 -88.7258 313° West 414 476 38,000  Level Memphis Center
12:25PM 34.0903 -88.8272 313° West 414 476 38,000  Level Memphis Center
12:26PM 34.1644 -88.9214 314° West 403 464 38,000  Level Memphis Center
12:27PM 34.2428 -89.0206 314° West 408 470 38,000  Level Memphis Center
12:28PM 34.3208 -89.1222 313° West 408 470 38,000  Level Memphis Center
12:29PM 34.3969 -89.2219 313° West 408 470 38,000  Level Memphis Center
12:30PM 34.4731 -89.3242 312° West 413 475 38,000  Level Memphis Center
12:31PM 34.5575 -89.4342 313° West 408 470 38,000  Level Memphis Center
12:32PM 34.6311 -89.5317 313° West 408 470 38,000  Level Memphis Center
12:33PM 34.7069 -89.6322 313° West 408 470 38,000  Level Memphis Center
12:34PM 34.7742 -89.7200 313° West 399 459 38,000  Level Memphis Center
12:35PM 34.8475 -89.8181 312° West 399 459 38,000  Level Memphis Center
12:36PM 34.9272 -89.9264 312° West 401 461 38,000  Level Memphis Center
12:38PM 35.0669 -90.1122 313° West 381 438 38,000  Level Kansas City Center
12:39PM 35.1392 -90.2083 313° West 382 440 38,000  Level Kansas City Center
12:40PM 35.2092 -90.3039 312° West 379 436 38,000  Level Kansas City Center
12:41PM 35.2889 -90.4081 313° West 383 441 38,000  Level Memphis Center
12:42PM 35.3578 -90.5022 312° West 378 435 38,000  Level Memphis Center
12:43PM 35.4286 -90.6017 311° West 383 441 38,000  Level Memphis Center
12:44PM 35.4992 -90.6989 312° West 383 441 38,000  Level Memphis Center
12:45PM 35.5719 -90.7961 313° West 383 441 38,000  Level Memphis Center
12:46PM 35.6444 -90.8936 312° West 388 447 38,000  Level Memphis Center
12:47PM 35.7108 -90.9936 309° West 380 437 38,000  Level Memphis Center
12:48PM 35.7833 -91.0914 312° West 382 440 38,000  Level Memphis Center
12:49PM 35.8556 -91.1919 312° West 387 445 38,000  Level Memphis Center
12:50PM 35.9236 -91.2900 311° West 387 445 38,000  Level Memphis Center
12:51PM 35.9939 -91.3908 311° West 387 445 38,000  Level Memphis Center
12:52PM 36.0661 -91.4867 313° West 387 445 38,000  Level Memphis Center
12:53PM 36.1381 -91.5856 312° West 387 445 38,000  Level Memphis Center
12:54PM 36.2078 -91.6842 311° West 387 445 38,000  Level Memphis Center
12:55PM 36.2778 -91.7781 313° West 381 438 38,000  Level Memphis Center
12:56PM 36.3453 -91.8772 310° West 381 438 38,000  Level Memphis Center
12:57PM 36.4150 -91.9739 312° West 381 438 38,000  Level Memphis Center
12:58PM 36.4847 -92.0708 312° West 381 438 38,000  Level Memphis Center
12:59PM 36.5947 -92.2300 311° West 377 434 38,000  Level Kansas City Center
01:00PM 36.6636 -92.3269 312° West 373 429 38,000  Level Kansas City Center
01:01PM 36.7325 -92.4250 311° West 375 432 38,000  Level Kansas City Center
01:02PM 36.8000 -92.5239 310° West 373 429 38,000  Level Kansas City Center
01:03PM 36.8686 -92.6222 311° West 373 429 38,000  Level Kansas City Center
01:05PM 36.9367 -92.7219 311° West 374 430 38,000  Level Kansas City Center
01:06PM 37.0172 -92.8389 311° West 370 426 38,000  Level Kansas City Center
01:07PM 37.0856 -92.9378 311° West 371 427 38,000  Level Kansas City Center
01:08PM 37.1519 -93.0356 310° West 368 423 38,000  Level Kansas City Center
01:09PM 37.2189 -93.1328 311° West 367 422 38,000  Level Kansas City Center
01:10PM 37.2847 -93.2303 310° West 364 419 38,000 -300 Level Kansas City Center
01:11PM 37.3528 -93.3275 311° West 368 423 37,400 -540 Descending Kansas City Center
01:12PM 37.4489 -93.3858 334° Northwest 379 436 37,000 -420 Descending Kansas City Center
01:13PM 37.5492 -93.4428 336° Northwest 388 447 36,600 -840 Descending Kansas City Center
01:14PM 37.6686 -93.5089 336° Northwest 388 447 35,300 -1,140 Descending Kansas City Center
01:15PM 37.7703 -93.5664 336° Northwest 395 455 34,400 -660 Descending Kansas City Center
01:16PM 37.8739 -93.6244 336° Northwest 401 461 34,000 -300 Descending Kansas City Center
01:17PM 37.9783 -93.6808 337° Northwest 405 466 33,800 -1,140 Descending Kansas City Center
01:18PM 38.0797 -93.7383 336° Northwest 400 460 31,700 -2,100 Descending Kansas City Center
01:19PM 38.1814 -93.7961 336° Northwest 397 457 29,500 -2,100 Descending Kansas City Center
01:20PM 38.2800 -93.8522 336° Northwest 391 450 27,400 -2,040 Descending Kansas City Center
01:21PM 38.3778 -93.9078 336° Northwest 385 443 25,400 -2,100 Descending Kansas City Center
01:22PM 38.4864 -93.9689 336° Northwest 383 441 23,100 -2,280 Descending Kansas City Center
01:23PM 38.5914 -94.0294 336° Northwest 371 427 20,800 -2,040 Descending Kansas City Center
01:24PM 38.6794 -94.0806 336° Northwest 364 419 19,000 -1,740 Descending Kansas City Center
01:25PM 38.7619 -94.1675 321° Northwest 343 395 17,200 -1,920 Descending Kansas City Center
01:26PM 38.8308 -94.2406 320° Northwest 337 388 15,200 -1,800 Descending Kansas City Center
01:27PM 38.8978 -94.3142 319° Northwest 331 381 13,500 -1,560 Descending Kansas City Center
01:28PM 38.9739 -94.3978 320° Northwest 322 371 12,000 -780 Descending Kansas City Center
01:29PM 39.0383 -94.4667 320° Northwest 317 365 12,000  Level Kansas City Center
01:30PM 39.1097 -94.5447 320° Northwest 303 349 12,000 -60 Level Kansas City Center
01:31PM 39.1678 -94.6083 320° Northwest 290 334 11,900 -1,380 Descending Kansas City Center
01:32PM 39.2417 -94.6514 336° Northwest 296 341 9,200 -2,220 Descending Kansas City Center
01:33PM 39.3186 -94.6147 20° North 308 354 7,300 -1,740 Descending Kansas City Center
01:35PM 39.4036 -94.5700 22° Northeast 296 341 5,700 -1,260 Descending Kansas City Center
01:36PM 39.4681 -94.5656 North 264 304 4,800 -900 Descending Kansas City Center
01:37PM 39.4522 -94.6375 254° West 201 231 3,900 -720 Descending Kansas City Center
01:38PM 39.4153 -94.6692 214° Southwest 169 194 3,400 -840 Descending Kansas City Center
01:39PM 39.3675 -94.6839 193° South 158 182 2,200 -960 Descending Kansas City Center
01:40PM 39.3319 -94.6947 193° South 140 161 1,500 -660 Descending Kansas City Center
01:41PM 39.2922 -94.7069 193° South 128 147 900 -600 Descending Kansas City Center